Margaret Anne — WDJ3914 — position and weather

sailwx.info

Track history (hours):
 
Tides and Currents Weather Stations Pressure Air Temp Water Temp Dewpoint Dewpoint Depression Visibility Wind Speed Wind Dir Waves Ship Positions

Margaret Anne

Owner: Genesis Marine,LLC, Houston, TX. More information available from US FCC via Universal Licensing System and Coast Guard Vessel Documentation Center.

Last reported at 2017-Oct-19 14:00 UTC. Time now 2017-Oct-19 14:26 UTC.
Position N 30°04' W 093°20'.

Length 26 m; draft 3.3 m.

Type: Towing. MMSI: 367772590.

Date/timePositionNaut miles runAvg speedWind from/ knotsBaromVisibWave heightAir tempDewpointWater temp
2017-Oct-19 14:00N 30°04' W 093°20'0 0.2
2017-Oct-19 13:30N 30°04' W 093°21'0 0.0
2017-Oct-19 13:00N 30°04' W 093°21'0 0.0
2017-Oct-19 12:30N 30°04' W 093°21'0 0.0
2017-Oct-19 12:00N 30°04' W 093°21'0 0.0
2017-Oct-19 11:30N 30°04' W 093°21'0 0.0
2017-Oct-19 11:00N 30°04' W 093°21'0 0.0
2017-Oct-19 10:30N 30°04' W 093°21'0 0.0
2017-Oct-19 10:00N 30°04' W 093°21'0 0.0
2017-Oct-19 09:30N 30°04' W 093°21'0 0.0
2017-Oct-19 09:00N 30°04' W 093°21'0 0.0
2017-Oct-19 08:30N 30°04' W 093°21'0 0.0
2017-Oct-19 08:00N 30°04' W 093°21'0 0.0
2017-Oct-19 07:30N 30°04' W 093°21'0 0.0
2017-Oct-19 07:00N 30°04' W 093°21'0 0.0
2017-Oct-19 06:30N 30°04' W 093°21'0 0.0
2017-Oct-19 06:00N 30°04' W 093°21'0 0.0
2017-Oct-19 05:30N 30°04' W 093°21'0 0.0
2017-Oct-19 05:00N 30°04' W 093°21'0 0.0
2017-Oct-19 04:30N 30°04' W 093°21'0 0.0
2017-Oct-19 04:00N 30°04' W 093°21'0 0.0
2017-Oct-19 03:30N 30°04' W 093°21'0 0.0
2017-Oct-19 03:00N 30°04' W 093°21'0 0.0
2017-Oct-19 02:30N 30°04' W 093°21'0 0.0
2017-Oct-19 02:00N 30°04' W 093°21'0 0.0
2017-Oct-19 01:30N 30°04' W 093°21'0 0.0
2017-Oct-19 01:00N 30°04' W 093°21'0 0.0
2017-Oct-19 00:30N 30°04' W 093°21'0 0.0
2017-Oct-19 00:00N 30°04' W 093°21'0 0.0
2017-Oct-18 23:30N 30°04' W 093°21'0 0.0
2017-Oct-18 23:00N 30°04' W 093°21'0 0.0
2017-Oct-18 22:30N 30°04' W 093°21'0 0.0
2017-Oct-18 22:00N 30°04' W 093°21'0 0.0
2017-Oct-18 21:30N 30°04' W 093°21'1 2.4
2017-Oct-18 21:01N 30°05' W 093°20'2 3.3
2017-Oct-18 20:30N 30°06' W 093°18'0 0.0
2017-Oct-18 20:00N 30°06' W 093°18'0 0.0
2017-Oct-18 19:30N 30°06' W 093°18'2 3.8
2017-Oct-18 19:00N 30°05' W 093°20'1 1.9
2017-Oct-18 18:30N 30°04' W 093°21'0 0.0
2017-Oct-18 18:00N 30°04' W 093°21'0 0.0
2017-Oct-18 17:30N 30°04' W 093°21'0 0.0
2017-Oct-18 17:00N 30°04' W 093°21'0 0.0
2017-Oct-18 16:30N 30°04' W 093°21'0 0.0
2017-Oct-18 16:00N 30°04' W 093°21'0 0.0
2017-Oct-18 15:30N 30°04' W 093°21'0 0.0
2017-Oct-18 15:00N 30°04' W 093°21'0 0.0
2017-Oct-18 14:00N 30°04' W 093°21'2 3.0
2017-Oct-18 13:30N 30°04' W 093°22'3 5.6
2017-Oct-18 13:00N 30°04' W 093°25'3 5.6
2017-Oct-18 12:30N 30°04' W 093°29'3 5.5
2017-Oct-18 12:00N 30°04' W 093°32'3 5.8
2017-Oct-18 11:30N 30°04' W 093°35'3 6.2
2017-Oct-18 11:00N 30°04' W 093°39'72 5.0
2017-Oct-17 20:29N 29°29' W 094°51'3 7.1
2017-Oct-17 20:00N 29°31' W 094°53'4 7.0
2017-Oct-17 19:30N 29°34' W 094°56'4 7.1
2017-Oct-17 19:00N 29°37' W 094°58'4 7.2
2017-Oct-17 18:30N 29°41' W 094°59'5 6.5
2017-Oct-17 17:41N 29°44' W 095°04'1 7.2
2017-Oct-17 17:29N 29°46' W 095°04'2 1.5
2017-Oct-17 16:07N 29°46' W 095°07'0 1.8
2017-Oct-17 16:00N 29°46' W 095°07'1 0.0
2017-Oct-16 13:10N 29°44' W 095°08'2 0.2
2017-Oct-15 21:56N 29°46' W 095°05'1 0.7
2017-Oct-15 20:43N 29°46' W 095°05'1 0.1
2017-Oct-15 04:30N 29°45' W 095°06'2 3.4
2017-Oct-15 04:00N 29°47' W 095°05'1 1.8
2017-Oct-15 03:30N 29°47' W 095°04'0 0.1
2017-Oct-15 02:48N 29°47' W 095°04'2 0.2
2017-Oct-14 15:03N 29°46' W 095°06'0 0.1
2017-Oct-14 14:57N 29°46' W 095°06'0 0.0
2017-Oct-14 14:29N 29°46' W 095°06'1 1.5
2017-Oct-14 14:00N 29°46' W 095°05'1 1.1
2017-Oct-14 12:55N 29°47' W 095°05'1 2.5
2017-Oct-14 12:29N 29°46' W 095°04'2 4.3
2017-Oct-14 12:00N 29°44' W 095°03'3 5.1
2017-Oct-14 11:30N 29°42' W 095°01'3 5.8
2017-Oct-14 11:00N 29°40' W 094°59'3 6.3
2017-Oct-14 10:30N 29°37' W 094°57'3 6.1
2017-Oct-14 10:00N 29°35' W 094°56'3 5.7
2017-Oct-14 09:30N 29°32' W 094°54'69 4.2
2017-Oct-13 17:08N 30°03' W 093°43'1 5.1
2017-Oct-13 16:57N 30°04' W 093°42'2 5.0
2017-Oct-13 16:30N 30°04' W 093°39'2 4.3
2017-Oct-13 16:00N 30°04' W 093°37'2 4.9
2017-Oct-13 15:30N 30°04' W 093°34'2 4.9
2017-Oct-13 15:00N 30°04' W 093°31'2 5.0
2017-Oct-13 14:30N 30°04' W 093°28'3 5.1
2017-Oct-13 14:00N 30°04' W 093°25'3 5.0
2017-Oct-13 13:30N 30°04' W 093°22'0 0.7
2017-Oct-13 13:00N 30°04' W 093°22'0 0.6
2017-Oct-13 12:30N 30°04' W 093°22'2 3.6
2017-Oct-13 12:00N 30°05' W 093°20'2 4.5
2017-Oct-13 11:30N 30°07' W 093°20'3 5.8
2017-Oct-13 11:01N 30°10' W 093°19'1 2.8
2017-Oct-13 10:30N 30°11' W 093°18'0 0.2
2017-Oct-13 10:00N 30°11' W 093°19'0 0.0
2017-Oct-13 09:30N 30°11' W 093°19'0 0.0
2017-Oct-13 09:00N 30°11' W 093°19'0 0.0
2017-Oct-13 08:30N 30°11' W 093°19'0 0.0
2017-Oct-13 08:00N 30°11' W 093°19'0 0.0
2017-Oct-13 07:31N 30°11' W 093°19'0 0.0
2017-Oct-13 07:00N 30°11' W 093°19'0 0.0
2017-Oct-13 06:30N 30°11' W 093°19'0 0.0
2017-Oct-13 06:00N 30°11' W 093°19'0 0.0
2017-Oct-13 05:30N 30°11' W 093°19'0 0.0
2017-Oct-13 05:00N 30°11' W 093°19'0 0.0
2017-Oct-13 04:31N 30°11' W 093°19'0 0.0
2017-Oct-13 04:01N 30°11' W 093°19'0 0.0
2017-Oct-13 03:30N 30°11' W 093°19'0 0.0
2017-Oct-13 03:00N 30°11' W 093°19'0 0.0
2017-Oct-13 02:30N 30°11' W 093°19'0 0.0
2017-Oct-13 02:00N 30°11' W 093°19'0 0.0
2017-Oct-13 01:30N 30°11' W 093°19'0 0.0
2017-Oct-13 01:00N 30°11' W 093°19'0 0.0
2017-Oct-13 00:31N 30°11' W 093°19'0 0.0
2017-Oct-13 00:00N 30°11' W 093°19'0 0.0
2017-Oct-12 23:31N 30°11' W 093°19'1 2.0
2017-Oct-12 23:01N 30°10' W 093°19'3 5.2
2017-Oct-12 22:31N 30°08' W 093°20'3 5.3
2017-Oct-12 22:00N 30°05' W 093°20'1 1.7
2017-Oct-12 21:30N 30°04' W 093°21'0 0.0
2017-Oct-12 21:00N 30°04' W 093°21'1 1.2
2017-Oct-12 20:30N 30°05' W 093°20'0 0.0
2017-Oct-12 20:00N 30°05' W 093°20'0 0.0
2017-Oct-12 19:30N 30°05' W 093°20'0 0.0
2017-Oct-12 19:00N 30°05' W 093°20'0 0.0
2017-Oct-12 18:30N 30°05' W 093°20'0 0.0
2017-Oct-12 18:00N 30°05' W 093°20'0 0.0
2017-Oct-12 17:30N 30°05' W 093°20'0 0.0
2017-Oct-12 17:01N 30°05' W 093°20'0 0.0
2017-Oct-12 16:31N 30°05' W 093°20'0 0.1
2017-Oct-12 16:00N 30°05' W 093°20'1 1.5
2017-Oct-12 15:31N 30°05' W 093°20'2 4.4
2017-Oct-12 15:00N 30°08' W 093°20'2 4.1
2017-Oct-12 14:31N 30°10' W 093°19'2 3.2
2017-Oct-12 14:00N 30°11' W 093°19'0 0.1
2017-Oct-12 13:30N 30°11' W 093°19'0 0.0
2017-Oct-12 13:01N 30°11' W 093°19'0 0.0
2017-Oct-12 12:31N 30°11' W 093°19'0 0.0
2017-Oct-12 12:00N 30°11' W 093°19'0 0.0
2017-Oct-12 11:30N 30°11' W 093°19'0 0.0
2017-Oct-12 11:00N 30°11' W 093°19'0 0.0
2017-Oct-12 10:30N 30°11' W 093°19'0 0.0
2017-Oct-12 10:00N 30°11' W 093°19'0 0.0
2017-Oct-12 09:31N 30°11' W 093°19'0 0.0
2017-Oct-12 09:00N 30°11' W 093°19'0 0.0
2017-Oct-12 08:30N 30°11' W 093°19'0 0.0
2017-Oct-12 08:00N 30°11' W 093°19'0 0.0
2017-Oct-12 07:31N 30°11' W 093°19'0 0.0
2017-Oct-12 07:00N 30°11' W 093°19'0 0.0
2017-Oct-12 06:30N 30°11' W 093°19'0 0.0
2017-Oct-12 06:00N 30°11' W 093°19'0 0.0
2017-Oct-12 05:30N 30°11' W 093°19'0 0.0
2017-Oct-12 05:00N 30°11' W 093°19'0 0.0
2017-Oct-12 04:30N 30°11' W 093°19'0 0.0
2017-Oct-12 04:00N 30°11' W 093°19'0 0.0
2017-Oct-12 03:30N 30°11' W 093°19'0 0.0
2017-Oct-12 03:00N 30°11' W 093°19'0 0.0
2017-Oct-12 02:30N 30°11' W 093°19'0 0.0
2017-Oct-12 02:00N 30°11' W 093°19'0 0.0
2017-Oct-12 01:30N 30°11' W 093°19'0 0.0
2017-Oct-12 01:00N 30°11' W 093°19'0 0.0
2017-Oct-12 00:31N 30°11' W 093°19'0 0.0
2017-Oct-12 00:00N 30°11' W 093°19'0 0.0
2017-Oct-11 23:30N 30°11' W 093°19'0 0.0
2017-Oct-11 23:00N 30°11' W 093°19'0 0.0
2017-Oct-11 22:30N 30°11' W 093°19'0 0.6
2017-Oct-11 22:01N 30°11' W 093°19'3 5.0
2017-Oct-11 21:30N 30°09' W 093°20'3 5.4
2017-Oct-11 21:00N 30°06' W 093°20'2 3.4
2017-Oct-11 20:30N 30°04' W 093°21'0 0.1
2017-Oct-11 20:01N 30°04' W 093°21'0 0.0
2017-Oct-11 19:31N 30°04' W 093°21'0 0.0
2017-Oct-11 19:01N 30°04' W 093°21'0 0.0
2017-Oct-11 18:30N 30°04' W 093°21'0 0.0
2017-Oct-11 18:01N 30°04' W 093°21'0 0.0
2017-Oct-11 17:30N 30°04' W 093°21'0 0.0
2017-Oct-11 17:00N 30°04' W 093°21'0 0.0
2017-Oct-11 00:00N 30°04' W 093°21'1 1.5
2017-Oct-10 23:31N 30°05' W 093°20'3 5.3
2017-Oct-10 23:01N 30°08' W 093°20'2 3.0
2017-Oct-10 22:31N 30°06' W 093°20'2 3.9
2017-Oct-10 22:01N 30°04' W 093°21'0 0.1
2017-Oct-10 21:31N 30°04' W 093°21'0 0.0
2017-Oct-10 21:00N 30°04' W 093°21'0 0.0
2017-Oct-10 20:30N 30°04' W 093°21'0 0.0
2017-Oct-10 20:00N 30°04' W 093°21'0 0.0
2017-Oct-10 19:30N 30°04' W 093°21'0 0.0
2017-Oct-10 19:01N 30°04' W 093°21'0 0.0
2017-Oct-10 18:31N 30°04' W 093°21'0 0.0
2017-Oct-10 18:00N 30°04' W 093°21'0 0.0
2017-Oct-10 17:30N 30°04' W 093°21'0 0.0
2017-Oct-10 17:00N 30°04' W 093°21'0 0.0
2017-Oct-10 16:30N 30°04' W 093°21'0 0.0
2017-Oct-10 16:01N 30°04' W 093°21'0 0.0
2017-Oct-10 15:30N 30°04' W 093°21'0 0.0
2017-Oct-10 15:00N 30°04' W 093°21'0 0.0
2017-Oct-10 14:01N 30°04' W 093°21'0 0.0
2017-Oct-10 13:31N 30°04' W 093°21'0 0.0
2017-Oct-10 13:01N 30°04' W 093°21'0 0.0
2017-Oct-10 12:30N 30°04' W 093°21'0 0.0
2017-Oct-10 12:00N 30°04' W 093°21'0 0.0
2017-Oct-10 11:30N 30°04' W 093°21'0 0.0
2017-Oct-10 11:00N 30°04' W 093°21'0 0.0
2017-Oct-10 10:31N 30°04' W 093°21'0 0.0
2017-Oct-10 10:00N 30°04' W 093°21'0 0.0
2017-Oct-10 09:31N 30°04' W 093°21'0 0.0
2017-Oct-10 09:01N 30°04' W 093°21'0 0.0
2017-Oct-10 08:31N 30°04' W 093°21'0 0.0
2017-Oct-10 08:00N 30°04' W 093°21'0 0.0
2017-Oct-10 07:31N 30°04' W 093°21'0 0.0
2017-Oct-10 07:00N 30°04' W 093°21'0 0.0
2017-Oct-10 06:31N 30°04' W 093°21'0 0.0
2017-Oct-10 06:01N 30°04' W 093°21'0 0.0
2017-Oct-10 05:30N 30°04' W 093°21'0 0.0
2017-Oct-10 05:01N 30°04' W 093°21'0 0.0
2017-Oct-10 04:30N 30°04' W 093°21'0 0.0
2017-Oct-10 04:01N 30°04' W 093°21'0 0.0
2017-Oct-10 03:30N 30°04' W 093°21'0 0.0
2017-Oct-10 03:00N 30°04' W 093°21'0 0.0
2017-Oct-10 02:30N 30°04' W 093°21'0 0.0
2017-Oct-10 02:00N 30°04' W 093°21'0 0.0
2017-Oct-10 01:30N 30°04' W 093°21'0 0.0
2017-Oct-10 01:00N 30°04' W 093°21'0 0.0
2017-Oct-10 00:30N 30°04' W 093°21'0 0.0
2017-Oct-10 00:00N 30°04' W 093°21'0 0.0
2017-Oct-09 23:30N 30°04' W 093°21'0 0.0
2017-Oct-09 23:00N 30°04' W 093°21'0 0.0
2017-Oct-09 22:31N 30°04' W 093°21'0 0.0
2017-Oct-09 22:00N 30°04' W 093°21'0 0.0
2017-Oct-09 21:31N 30°04' W 093°21'0 0.0
2017-Oct-09 21:01N 30°04' W 093°21'0 0.0
2017-Oct-09 20:30N 30°04' W 093°21'0 0.0
2017-Oct-09 20:01N 30°04' W 093°21'0 0.0
2017-Oct-09 19:31N 30°04' W 093°21'0 0.0
2017-Oct-09 19:00N 30°04' W 093°21'0 0.0
2017-Oct-09 18:31N 30°04' W 093°21'0 0.0
2017-Oct-09 18:00N 30°04' W 093°21'0 0.0
2017-Oct-09 17:30N 30°04' W 093°21'0 0.0
2017-Oct-09 17:01N 30°04' W 093°21'0 0.0
2017-Oct-09 16:30N 30°04' W 093°21'0 0.0
2017-Oct-09 16:00N 30°04' W 093°21'0 0.0
2017-Oct-09 15:31N 30°04' W 093°21'0 0.0
2017-Oct-09 15:00N 30°04' W 093°21'0 0.0
2017-Oct-09 14:30N 30°04' W 093°21'0 0.0
2017-Oct-09 14:00N 30°04' W 093°21'  
Track history (hours):
 
Tides and Currents Weather Stations Pressure Air Temp Water Temp Dewpoint Dewpoint Depression Visibility Wind Speed Wind Dir Waves Ship Positions

Margaret Anne

Owner: Genesis Marine,LLC, Houston, TX. More information available from US FCC via Universal Licensing System and Coast Guard Vessel Documentation Center.

Last reported at 2017-Oct-19 14:00 UTC. Time now 2017-Oct-19 14:26 UTC.
Position N 30°04' W 093°20'.

Length 26 m; draft 3.3 m.

Type: Towing. MMSI: 367772590.

Date/timePositionNaut miles runAvg speedWind from/ knotsBaromVisibWave heightAir tempDewpointWater temp
2017-Oct-19 14:00N 30°04' W 093°20'0 0.2
2017-Oct-19 13:30N 30°04' W 093°21'0 0.0
2017-Oct-19 13:00N 30°04' W 093°21'0 0.0
2017-Oct-19 12:30N 30°04' W 093°21'0 0.0
2017-Oct-19 12:00N 30°04' W 093°21'0 0.0
2017-Oct-19 11:30N 30°04' W 093°21'0 0.0
2017-Oct-19 11:00N 30°04' W 093°21'0 0.0
2017-Oct-19 10:30N 30°04' W 093°21'0 0.0
2017-Oct-19 10:00N 30°04' W 093°21'0 0.0
2017-Oct-19 09:30N 30°04' W 093°21'0 0.0
2017-Oct-19 09:00N 30°04' W 093°21'0 0.0
2017-Oct-19 08:30N 30°04' W 093°21'0 0.0
2017-Oct-19 08:00N 30°04' W 093°21'0 0.0
2017-Oct-19 07:30N 30°04' W 093°21'0 0.0
2017-Oct-19 07:00N 30°04' W 093°21'0 0.0
2017-Oct-19 06:30N 30°04' W 093°21'0 0.0
2017-Oct-19 06:00N 30°04' W 093°21'0 0.0
2017-Oct-19 05:30N 30°04' W 093°21'0 0.0
2017-Oct-19 05:00N 30°04' W 093°21'0 0.0
2017-Oct-19 04:30N 30°04' W 093°21'0 0.0
2017-Oct-19 04:00N 30°04' W 093°21'0 0.0
2017-Oct-19 03:30N 30°04' W 093°21'0 0.0
2017-Oct-19 03:00N 30°04' W 093°21'0 0.0
2017-Oct-19 02:30N 30°04' W 093°21'0 0.0
2017-Oct-19 02:00N 30°04' W 093°21'0 0.0
2017-Oct-19 01:30N 30°04' W 093°21'0 0.0
2017-Oct-19 01:00N 30°04' W 093°21'0 0.0
2017-Oct-19 00:30N 30°04' W 093°21'0 0.0
2017-Oct-19 00:00N 30°04' W 093°21'0 0.0
2017-Oct-18 23:30N 30°04' W 093°21'0 0.0
2017-Oct-18 23:00N 30°04' W 093°21'0 0.0
2017-Oct-18 22:30N 30°04' W 093°21'0 0.0
2017-Oct-18 22:00N 30°04' W 093°21'0 0.0
2017-Oct-18 21:30N 30°04' W 093°21'1 2.4
2017-Oct-18 21:01N 30°05' W 093°20'2 3.3
2017-Oct-18 20:30N 30°06' W 093°18'0 0.0
2017-Oct-18 20:00N 30°06' W 093°18'0 0.0
2017-Oct-18 19:30N 30°06' W 093°18'2 3.8
2017-Oct-18 19:00N 30°05' W 093°20'1 1.9
2017-Oct-18 18:30N 30°04' W 093°21'0 0.0
2017-Oct-18 18:00N 30°04' W 093°21'0 0.0
2017-Oct-18 17:30N 30°04' W 093°21'0 0.0
2017-Oct-18 17:00N 30°04' W 093°21'0 0.0
2017-Oct-18 16:30N 30°04' W 093°21'0 0.0
2017-Oct-18 16:00N 30°04' W 093°21'0 0.0
2017-Oct-18 15:30N 30°04' W 093°21'0 0.0
2017-Oct-18 15:00N 30°04' W 093°21'0 0.0
2017-Oct-18 14:00N 30°04' W 093°21'2 3.0
2017-Oct-18 13:30N 30°04' W 093°22'3 5.6
2017-Oct-18 13:00N 30°04' W 093°25'3 5.6
2017-Oct-18 12:30N 30°04' W 093°29'3 5.5
2017-Oct-18 12:00N 30°04' W 093°32'3 5.8
2017-Oct-18 11:30N 30°04' W 093°35'3 6.2
2017-Oct-18 11:00N 30°04' W 093°39'72 5.0
2017-Oct-17 20:29N 29°29' W 094°51'3 7.1
2017-Oct-17 20:00N 29°31' W 094°53'4 7.0
2017-Oct-17 19:30N 29°34' W 094°56'4 7.1
2017-Oct-17 19:00N 29°37' W 094°58'4 7.2
2017-Oct-17 18:30N 29°41' W 094°59'5 6.5
2017-Oct-17 17:41N 29°44' W 095°04'1 7.2
2017-Oct-17 17:29N 29°46' W 095°04'2 1.5
2017-Oct-17 16:07N 29°46' W 095°07'0 1.8
2017-Oct-17 16:00N 29°46' W 095°07'1 0.0
2017-Oct-16 13:10N 29°44' W 095°08'2 0.2
2017-Oct-15 21:56N 29°46' W 095°05'1 0.7
2017-Oct-15 20:43N 29°46' W 095°05'1 0.1
2017-Oct-15 04:30N 29°45' W 095°06'2 3.4
2017-Oct-15 04:00N 29°47' W 095°05'1 1.8
2017-Oct-15 03:30N 29°47' W 095°04'0 0.1
2017-Oct-15 02:48N 29°47' W 095°04'2 0.2
2017-Oct-14 15:03N 29°46' W 095°06'0 0.1
2017-Oct-14 14:57N 29°46' W 095°06'0 0.0
2017-Oct-14 14:29N 29°46' W 095°06'1 1.5
2017-Oct-14 14:00N 29°46' W 095°05'1 1.1
2017-Oct-14 12:55N 29°47' W 095°05'1 2.5
2017-Oct-14 12:29N 29°46' W 095°04'2 4.3
2017-Oct-14 12:00N 29°44' W 095°03'3 5.1
2017-Oct-14 11:30N 29°42' W 095°01'3 5.8
2017-Oct-14 11:00N 29°40' W 094°59'3 6.3
2017-Oct-14 10:30N 29°37' W 094°57'3 6.1
2017-Oct-14 10:00N 29°35' W 094°56'3 5.7
2017-Oct-14 09:30N 29°32' W 094°54'69 4.2
2017-Oct-13 17:08N 30°03' W 093°43'1 5.1
2017-Oct-13 16:57N 30°04' W 093°42'2 5.0
2017-Oct-13 16:30N 30°04' W 093°39'2 4.3
2017-Oct-13 16:00N 30°04' W 093°37'2 4.9
2017-Oct-13 15:30N 30°04' W 093°34'2 4.9
2017-Oct-13 15:00N 30°04' W 093°31'2 5.0
2017-Oct-13 14:30N 30°04' W 093°28'3 5.1
2017-Oct-13 14:00N 30°04' W 093°25'3 5.0
2017-Oct-13 13:30N 30°04' W 093°22'0 0.7
2017-Oct-13 13:00N 30°04' W 093°22'0 0.6
2017-Oct-13 12:30N 30°04' W 093°22'2 3.6
2017-Oct-13 12:00N 30°05' W 093°20'2 4.5
2017-Oct-13 11:30N 30°07' W 093°20'3 5.8
2017-Oct-13 11:01N 30°10' W 093°19'1 2.8
2017-Oct-13 10:30N 30°11' W 093°18'0 0.2
2017-Oct-13 10:00N 30°11' W 093°19'0 0.0
2017-Oct-13 09:30N 30°11' W 093°19'0 0.0
2017-Oct-13 09:00N 30°11' W 093°19'0 0.0
2017-Oct-13 08:30N 30°11' W 093°19'0 0.0
2017-Oct-13 08:00N 30°11' W 093°19'0 0.0
2017-Oct-13 07:31N 30°11' W 093°19'0 0.0
2017-Oct-13 07:00N 30°11' W 093°19'0 0.0
2017-Oct-13 06:30N 30°11' W 093°19'0 0.0
2017-Oct-13 06:00N 30°11' W 093°19'0 0.0
2017-Oct-13 05:30N 30°11' W 093°19'0 0.0
2017-Oct-13 05:00N 30°11' W 093°19'0 0.0
2017-Oct-13 04:31N 30°11' W 093°19'0 0.0
2017-Oct-13 04:01N 30°11' W 093°19'0 0.0
2017-Oct-13 03:30N 30°11' W 093°19'0 0.0
2017-Oct-13 03:00N 30°11' W 093°19'0 0.0
2017-Oct-13 02:30N 30°11' W 093°19'0 0.0
2017-Oct-13 02:00N 30°11' W 093°19'0 0.0
2017-Oct-13 01:30N 30°11' W 093°19'0 0.0
2017-Oct-13 01:00N 30°11' W 093°19'0 0.0
2017-Oct-13 00:31N 30°11' W 093°19'0 0.0
2017-Oct-13 00:00N 30°11' W 093°19'0 0.0
2017-Oct-12 23:31N 30°11' W 093°19'1 2.0
2017-Oct-12 23:01N 30°10' W 093°19'3 5.2
2017-Oct-12 22:31N 30°08' W 093°20'3 5.3
2017-Oct-12 22:00N 30°05' W 093°20'1 1.7
2017-Oct-12 21:30N 30°04' W 093°21'0 0.0
2017-Oct-12 21:00N 30°04' W 093°21'1 1.2
2017-Oct-12 20:30N 30°05' W 093°20'0 0.0
2017-Oct-12 20:00N 30°05' W 093°20'0 0.0
2017-Oct-12 19:30N 30°05' W 093°20'0 0.0
2017-Oct-12 19:00N 30°05' W 093°20'0 0.0
2017-Oct-12 18:30N 30°05' W 093°20'0 0.0
2017-Oct-12 18:00N 30°05' W 093°20'0 0.0
2017-Oct-12 17:30N 30°05' W 093°20'0 0.0
2017-Oct-12 17:01N 30°05' W 093°20'0 0.0
2017-Oct-12 16:31N 30°05' W 093°20'0 0.1
2017-Oct-12 16:00N 30°05' W 093°20'1 1.5
2017-Oct-12 15:31N 30°05' W 093°20'2 4.4
2017-Oct-12 15:00N 30°08' W 093°20'2 4.1
2017-Oct-12 14:31N 30°10' W 093°19'2 3.2
2017-Oct-12 14:00N 30°11' W 093°19'0 0.1
2017-Oct-12 13:30N 30°11' W 093°19'0 0.0
2017-Oct-12 13:01N 30°11' W 093°19'0 0.0
2017-Oct-12 12:31N 30°11' W 093°19'0 0.0
2017-Oct-12 12:00N 30°11' W 093°19'0 0.0
2017-Oct-12 11:30N 30°11' W 093°19'0 0.0
2017-Oct-12 11:00N 30°11' W 093°19'0 0.0
2017-Oct-12 10:30N 30°11' W 093°19'0 0.0
2017-Oct-12 10:00N 30°11' W 093°19'0 0.0
2017-Oct-12 09:31N 30°11' W 093°19'0 0.0
2017-Oct-12 09:00N 30°11' W 093°19'0 0.0
2017-Oct-12 08:30N 30°11' W 093°19'0 0.0
2017-Oct-12 08:00N 30°11' W 093°19'0 0.0
2017-Oct-12 07:31N 30°11' W 093°19'0 0.0
2017-Oct-12 07:00N 30°11' W 093°19'0 0.0
2017-Oct-12 06:30N 30°11' W 093°19'0 0.0
2017-Oct-12 06:00N 30°11' W 093°19'0 0.0
2017-Oct-12 05:30N 30°11' W 093°19'0 0.0
2017-Oct-12 05:00N 30°11' W 093°19'0 0.0
2017-Oct-12 04:30N 30°11' W 093°19'0 0.0
2017-Oct-12 04:00N 30°11' W 093°19'0 0.0
2017-Oct-12 03:30N 30°11' W 093°19'0 0.0
2017-Oct-12 03:00N 30°11' W 093°19'0 0.0
2017-Oct-12 02:30N 30°11' W 093°19'0 0.0
2017-Oct-12 02:00N 30°11' W 093°19'0 0.0
2017-Oct-12 01:30N 30°11' W 093°19'0 0.0
2017-Oct-12 01:00N 30°11' W 093°19'0 0.0
2017-Oct-12 00:31N 30°11' W 093°19'0 0.0
2017-Oct-12 00:00N 30°11' W 093°19'0 0.0
2017-Oct-11 23:30N 30°11' W 093°19'0 0.0
2017-Oct-11 23:00N 30°11' W 093°19'0 0.0
2017-Oct-11 22:30N 30°11' W 093°19'0 0.6
2017-Oct-11 22:01N 30°11' W 093°19'3 5.0
2017-Oct-11 21:30N 30°09' W 093°20'3 5.4
2017-Oct-11 21:00N 30°06' W 093°20'2 3.4
2017-Oct-11 20:30N 30°04' W 093°21'0 0.1
2017-Oct-11 20:01N 30°04' W 093°21'0 0.0
2017-Oct-11 19:31N 30°04' W 093°21'0 0.0
2017-Oct-11 19:01N 30°04' W 093°21'0 0.0
2017-Oct-11 18:30N 30°04' W 093°21'0 0.0
2017-Oct-11 18:01N 30°04' W 093°21'0 0.0
2017-Oct-11 17:30N 30°04' W 093°21'0 0.0
2017-Oct-11 17:00N 30°04' W 093°21'0 0.0
2017-Oct-11 00:00N 30°04' W 093°21'1 1.5
2017-Oct-10 23:31N 30°05' W 093°20'3 5.3
2017-Oct-10 23:01N 30°08' W 093°20'2 3.0
2017-Oct-10 22:31N 30°06' W 093°20'2 3.9
2017-Oct-10 22:01N 30°04' W 093°21'0 0.1
2017-Oct-10 21:31N 30°04' W 093°21'0 0.0
2017-Oct-10 21:00N 30°04' W 093°21'0 0.0
2017-Oct-10 20:30N 30°04' W 093°21'0 0.0
2017-Oct-10 20:00N 30°04' W 093°21'0 0.0
2017-Oct-10 19:30N 30°04' W 093°21'0 0.0
2017-Oct-10 19:01N 30°04' W 093°21'0 0.0
2017-Oct-10 18:31N 30°04' W 093°21'0 0.0
2017-Oct-10 18:00N 30°04' W 093°21'0 0.0
2017-Oct-10 17:30N 30°04' W 093°21'0 0.0
2017-Oct-10 17:00N 30°04' W 093°21'0 0.0
2017-Oct-10 16:30N 30°04' W 093°21'0 0.0
2017-Oct-10 16:01N 30°04' W 093°21'0 0.0
2017-Oct-10 15:30N 30°04' W 093°21'0 0.0
2017-Oct-10 15:00N 30°04' W 093°21'0 0.0
2017-Oct-10 14:01N 30°04' W 093°21'0 0.0
2017-Oct-10 13:31N 30°04' W 093°21'0 0.0
2017-Oct-10 13:01N 30°04' W 093°21'0 0.0
2017-Oct-10 12:30N 30°04' W 093°21'0 0.0
2017-Oct-10 12:00N 30°04' W 093°21'0 0.0
2017-Oct-10 11:30N 30°04' W 093°21'0 0.0
2017-Oct-10 11:00N 30°04' W 093°21'0 0.0
2017-Oct-10 10:31N 30°04' W 093°21'0 0.0
2017-Oct-10 10:00N 30°04' W 093°21'0 0.0
2017-Oct-10 09:31N 30°04' W 093°21'0 0.0
2017-Oct-10 09:01N 30°04' W 093°21'0 0.0
2017-Oct-10 08:31N 30°04' W 093°21'0 0.0
2017-Oct-10 08:00N 30°04' W 093°21'0 0.0
2017-Oct-10 07:31N 30°04' W 093°21'0 0.0
2017-Oct-10 07:00N 30°04' W 093°21'0 0.0
2017-Oct-10 06:31N 30°04' W 093°21'0 0.0
2017-Oct-10 06:01N 30°04' W 093°21'0 0.0
2017-Oct-10 05:30N 30°04' W 093°21'0 0.0
2017-Oct-10 05:01N 30°04' W 093°21'0 0.0
2017-Oct-10 04:30N 30°04' W 093°21'0 0.0
2017-Oct-10 04:01N 30°04' W 093°21'0 0.0
2017-Oct-10 03:30N 30°04' W 093°21'0 0.0
2017-Oct-10 03:00N 30°04' W 093°21'0 0.0
2017-Oct-10 02:30N 30°04' W 093°21'0 0.0
2017-Oct-10 02:00N 30°04' W 093°21'0 0.0
2017-Oct-10 01:30N 30°04' W 093°21'0 0.0
2017-Oct-10 01:00N 30°04' W 093°21'0 0.0
2017-Oct-10 00:30N 30°04' W 093°21'0 0.0
2017-Oct-10 00:00N 30°04' W 093°21'0 0.0
2017-Oct-09 23:30N 30°04' W 093°21'0 0.0
2017-Oct-09 23:00N 30°04' W 093°21'0 0.0
2017-Oct-09 22:31N 30°04' W 093°21'0 0.0
2017-Oct-09 22:00N 30°04' W 093°21'0 0.0
2017-Oct-09 21:31N 30°04' W 093°21'0 0.0
2017-Oct-09 21:01N 30°04' W 093°21'0 0.0
2017-Oct-09 20:30N 30°04' W 093°21'0 0.0
2017-Oct-09 20:01N 30°04' W 093°21'0 0.0
2017-Oct-09 19:31N 30°04' W 093°21'0 0.0
2017-Oct-09 19:00N 30°04' W 093°21'0 0.0
2017-Oct-09 18:31N 30°04' W 093°21'0 0.0
2017-Oct-09 18:00N 30°04' W 093°21'0 0.0
2017-Oct-09 17:30N 30°04' W 093°21'0 0.0
2017-Oct-09 17:01N 30°04' W 093°21'0 0.0
2017-Oct-09 16:30N 30°04' W 093°21'0 0.0
2017-Oct-09 16:00N 30°04' W 093°21'0 0.0
2017-Oct-09 15:31N 30°04' W 093°21'0 0.0
2017-Oct-09 15:00N 30°04' W 093°21'0 0.0
2017-Oct-09 14:30N 30°04' W 093°21'0 0.0
2017-Oct-09 14:00N 30°04' W 093°21'  

Dump ship's entire track history